createdAt,value
2017-04-15T00:00:20.356Z,17.65
2017-04-15T00:01:19.451Z,23.55
2017-04-15T00:02:18.593Z,17.88
2017-04-15T00:03:17.680Z,12.15
2017-04-15T00:04:16.824Z,11.17
2017-04-15T00:05:15.237Z,21.78
2017-04-15T00:06:14.425Z,18.20
2017-04-15T00:07:13.579Z,11.82
2017-04-15T00:08:12.667Z,12.45
2017-04-15T00:09:12.589Z,14.77
2017-04-15T00:10:11.656Z,18.03
2017-04-15T00:11:10.736Z,17.32
2017-04-15T00:12:09.935Z,20.48
2017-04-15T00:13:09.133Z,16.07
2017-04-15T00:14:08.240Z,15.60
2017-04-15T00:15:07.433Z,15.50
2017-04-15T00:16:06.530Z,15.32
2017-04-15T00:17:05.650Z,17.05
2017-04-15T00:18:04.043Z,15.35
2017-04-15T00:19:03.189Z,13.88
2017-04-15T00:20:03.014Z,12.92
2017-04-15T00:21:02.208Z,13.98
2017-04-15T00:22:01.310Z,12.60
2017-04-15T00:22:59.641Z,11.47
2017-04-15T00:23:58.768Z,13.30
2017-04-15T00:24:57.844Z,17.45
2017-04-15T00:25:57.020Z,16.00
2017-04-15T00:26:56.060Z,20.80
2017-04-15T00:27:55.240Z,17.57
2017-04-15T00:28:54.416Z,11.75
2017-04-15T00:29:53.540Z,13.68
2017-04-15T00:30:52.745Z,15.05
2017-04-15T00:31:51.900Z,12.50
2017-04-15T00:32:51.071Z,17.13
2017-04-15T00:33:50.271Z,15.78
2017-04-15T00:34:49.383Z,15.20
2017-04-15T00:35:48.508Z,13.83
2017-04-15T00:36:47.632Z,15.02
2017-04-15T00:37:46.827Z,15.68
2017-04-15T00:38:45.871Z,11.20
2017-04-15T00:39:45.001Z,10.38
2017-04-15T00:40:44.089Z,13.62
2017-04-15T00:41:43.178Z,10.88
2017-04-15T00:42:42.244Z,10.73
2017-04-15T00:43:41.354Z,17.07
2017-04-15T00:44:40.479Z,12.20
2017-04-15T00:45:38.859Z,16.83
2017-04-15T00:46:37.952Z,15.37
2017-04-15T00:47:37.025Z,17.45
2017-04-15T00:48:36.182Z,15.45
2017-04-15T00:49:35.478Z,15.85
2017-04-15T00:50:34.633Z,14.22
2017-04-15T00:51:33.740Z,18.85
2017-04-15T00:52:32.808Z,16.77
2017-04-15T00:53:31.929Z,15.57
2017-04-15T00:54:31.136Z,15.62
2017-04-15T00:55:30.269Z,12.83
2017-04-15T00:56:29.431Z,16.03
2017-04-15T00:57:28.437Z,16.65
2017-04-15T00:58:27.591Z,18.30
2017-04-15T00:59:26.655Z,15.68
2017-04-15T01:00:25.169Z,12.37
2017-04-15T01:01:24.315Z,14.70
2017-04-15T01:02:23.408Z,19.80
2017-04-15T01:03:22.487Z,13.37
2017-04-15T01:04:21.572Z,17.30
2017-04-15T01:05:20.702Z,11.88
2017-04-15T01:06:20.578Z,15.08
2017-04-15T01:07:19.719Z,17.38
2017-04-15T01:08:19.195Z,15.15
2017-04-15T01:09:19.167Z,15.43
2017-04-15T01:10:18.251Z,13.75
2017-04-15T01:11:17.363Z,17.65
2017-04-15T01:12:16.552Z,18.52
2017-04-15T01:13:15.804Z,19.28
2017-04-15T01:14:14.288Z,16.50
2017-04-15T01:15:13.399Z,14.68
2017-04-15T01:16:12.503Z,13.82
2017-04-15T01:17:11.714Z,22.03
2017-04-15T01:18:10.816Z,14.38
2017-04-15T01:19:09.964Z,14.08
2017-04-15T01:20:09.792Z,21.33
2017-04-15T01:21:08.891Z,20.92
2017-04-15T01:22:07.991Z,15.15
2017-04-15T01:23:07.090Z,16.25
2017-04-15T01:24:06.291Z,17.43
2017-04-15T01:25:05.379Z,14.33
2017-04-15T01:26:04.505Z,21.52
2017-04-15T01:27:03.640Z,20.08
2017-04-15T01:28:02.914Z,15.20
2017-04-15T01:29:02.016Z,13.40
2017-04-15T01:30:01.212Z,16.80
2017-04-15T01:31:00.430Z,19.98
2017-04-15T01:31:59.623Z,13.40
2017-04-15T01:32:57.985Z,13.12
2017-04-15T01:33:57.132Z,12.77
2017-04-15T01:34:56.357Z,20.30
2017-04-15T01:35:54.838Z,15.08
2017-04-15T01:36:54.027Z,24.43
2017-04-15T01:37:53.144Z,17.18
2017-04-15T01:38:52.291Z,16.73
2017-04-15T01:39:51.436Z,15.87
2017-04-15T01:40:50.535Z,16.00
2017-04-15T01:41:49.701Z,13.93
2017-04-15T01:42:49.931Z,17.48
2017-04-15T01:43:49.123Z,16.48
2017-04-15T01:44:48.587Z,14.05
2017-04-15T01:45:47.692Z,19.93
2017-04-15T01:46:46.828Z,15.17
2017-04-15T01:47:46.758Z,17.68
2017-04-15T01:48:45.835Z,12.83
2017-04-15T01:49:44.991Z,17.98
2017-04-15T01:50:43.314Z,14.12
2017-04-15T01:51:42.435Z,19.65
2017-04-15T01:52:41.540Z,21.07
2017-04-15T01:53:40.707Z,17.28
2017-04-15T01:54:39.896Z,20.73
2017-04-15T01:55:39.047Z,17.87
2017-04-15T01:56:38.152Z,17.50
2017-04-15T01:57:37.216Z,23.62
2017-04-15T01:58:36.438Z,18.67
2017-04-15T01:59:35.675Z,18.35
2017-04-15T02:00:34.724Z,17.92
2017-04-15T02:01:33.872Z,18.00
2017-04-15T02:02:33.192Z,15.42
2017-04-15T02:03:32.328Z,18.53
2017-04-15T02:04:31.593Z,21.28
2017-04-15T02:05:30.764Z,21.33
2017-04-15T02:06:30.616Z,22.22
2017-04-15T02:07:29.760Z,20.32
2017-04-15T02:08:28.861Z,16.93
2017-04-15T02:09:27.928Z,17.85
2017-04-15T02:10:27.099Z,21.67
2017-04-15T02:11:26.255Z,16.78
2017-04-15T02:12:24.680Z,16.37
2017-04-15T02:13:23.719Z,26.03
2017-04-15T02:14:22.839Z,17.90
2017-04-15T02:15:22.041Z,17.10
2017-04-15T02:16:20.372Z,20.92
2017-04-15T02:17:19.551Z,18.72
2017-04-15T02:18:18.650Z,22.03
2017-04-15T02:19:17.840Z,21.80
2017-04-15T02:20:16.969Z,18.08
2017-04-15T02:21:16.160Z,21.67
2017-04-15T02:22:15.299Z,15.48
2017-04-15T02:23:14.460Z,18.18
2017-04-15T02:24:13.591Z,22.75
2017-04-15T02:25:12.751Z,21.30
2017-04-15T02:26:11.851Z,23.02
2017-04-15T02:27:10.864Z,21.03
2017-04-15T02:28:09.947Z,21.85
2017-04-15T02:29:08.352Z,18.33
2017-04-15T02:30:07.466Z,19.20
2017-04-15T02:31:06.592Z,20.98
2017-04-15T02:32:05.714Z,20.00
2017-04-15T02:33:04.871Z,17.85
2017-04-15T02:34:04.080Z,20.28
2017-04-15T02:35:03.329Z,21.90
2017-04-15T02:36:02.523Z,17.87
2017-04-15T02:37:01.547Z,17.08
2017-04-15T02:38:00.616Z,18.17
2017-04-15T02:38:59.683Z,19.48
2017-04-15T02:39:58.826Z,24.53
2017-04-15T02:40:57.927Z,14.97
2017-04-15T02:41:57.012Z,15.63
2017-04-15T02:42:56.100Z,17.88
2017-04-15T02:43:55.290Z,19.05
2017-04-15T02:44:54.435Z,17.78
2017-04-15T02:45:53.551Z,21.85
2017-04-15T02:46:52.693Z,19.15
2017-04-15T02:47:51.783Z,19.65
2017-04-15T02:48:50.907Z,22.32
2017-04-15T02:49:50.023Z,23.42
2017-04-15T02:50:49.926Z,23.37
2017-04-15T02:51:49.810Z,18.65
2017-04-15T02:52:48.192Z,22.40
2017-04-15T02:53:47.316Z,16.27
2017-04-15T02:54:46.439Z,19.33
2017-04-15T02:55:46.264Z,20.45
2017-04-15T02:56:45.279Z,18.42
2017-04-15T02:57:44.420Z,18.52
2017-04-15T02:58:43.562Z,17.55
2017-04-15T02:59:43.486Z,26.48
2017-04-15T03:00:42.679Z,17.67
2017-04-15T03:01:41.844Z,23.93
2017-04-15T03:02:41.059Z,22.48
2017-04-15T03:03:40.219Z,18.68
2017-04-15T03:04:39.355Z,17.97
2017-04-15T03:05:38.517Z,16.73
2017-04-15T03:06:37.719Z,21.25
2017-04-15T03:07:36.809Z,20.00
2017-04-15T03:08:35.240Z,23.97
2017-04-15T03:09:34.395Z,21.72
2017-04-15T03:10:33.563Z,22.15
2017-04-15T03:11:32.669Z,16.85
2017-04-15T03:12:31.883Z,25.88
2017-04-15T03:13:31.025Z,20.68
2017-04-15T03:14:30.141Z,14.95
2017-04-15T03:15:28.463Z,22.47
2017-04-15T03:16:27.487Z,18.28
2017-04-15T03:17:26.683Z,15.97
2017-04-15T03:18:25.040Z,16.77
2017-04-15T03:19:24.253Z,20.62
2017-04-15T03:20:23.382Z,16.18
2017-04-15T03:21:23.252Z,18.85
2017-04-15T03:22:22.392Z,23.75
2017-04-15T03:23:21.475Z,18.47
2017-04-15T03:24:19.844Z,20.02
2017-04-15T03:25:18.892Z,20.58
2017-04-15T03:26:18.288Z,18.47
2017-04-15T03:27:16.583Z,17.87
2017-04-15T03:28:15.648Z,16.63
2017-04-15T03:29:14.723Z,17.42
2017-04-15T03:30:13.777Z,21.13
2017-04-15T03:31:12.962Z,17.02
2017-04-15T03:32:11.320Z,19.30
2017-04-15T03:33:10.400Z,13.65
2017-04-15T03:34:09.613Z,15.33
2017-04-15T03:35:08.731Z,17.93
2017-04-15T03:36:07.880Z,18.27
2017-04-15T03:37:06.938Z,22.32
2017-04-15T03:38:05.879Z,16.63
2017-04-15T03:39:05.378Z,17.88
2017-04-15T03:40:03.724Z,14.87
2017-04-15T03:41:02.755Z,19.60
2017-04-15T03:42:01.872Z,13.85
2017-04-15T03:43:00.943Z,18.67
2017-04-15T03:44:00.038Z,13.20
2017-04-15T03:44:59.180Z,22.97
2017-04-15T03:45:58.364Z,19.17
2017-04-15T03:46:57.492Z,18.15
2017-04-15T03:47:57.411Z,16.90
2017-04-15T03:48:56.475Z,20.27
2017-04-15T03:49:55.655Z,14.18
2017-04-15T03:50:54.785Z,21.62
2017-04-15T03:51:53.973Z,19.65
2017-04-15T03:52:53.034Z,20.97
2017-04-15T03:53:52.099Z,20.30
2017-04-15T03:54:50.433Z,16.72
2017-04-15T03:55:48.737Z,17.17
2017-04-15T03:56:48.184Z,19.03
2017-04-15T03:57:47.319Z,20.50
2017-04-15T03:58:46.451Z,18.97
2017-04-15T03:59:44.840Z,14.67
2017-04-15T04:00:43.936Z,20.38
2017-04-15T04:01:42.958Z,19.88
2017-04-15T04:02:42.062Z,20.08
2017-04-15T04:03:41.246Z,21.67
2017-04-15T04:04:40.358Z,17.87
2017-04-15T04:05:39.414Z,20.23
2017-04-15T04:06:38.488Z,19.63
2017-04-15T04:07:37.612Z,17.18
2017-04-15T04:08:36.021Z,20.48
2017-04-15T04:09:35.123Z,22.30
2017-04-15T04:10:34.352Z,20.88
2017-04-15T04:11:33.442Z,18.67
2017-04-15T04:12:32.564Z,19.00
2017-04-15T04:13:31.687Z,16.60
2017-04-15T04:14:30.846Z,24.07
2017-04-15T04:15:30.031Z,17.93
2017-04-15T04:16:29.155Z,20.50
2017-04-15T04:17:28.295Z,21.93
2017-04-15T04:18:27.528Z,24.70
2017-04-15T04:19:26.724Z,22.02
2017-04-15T04:20:25.811Z,20.13
2017-04-15T04:21:24.953Z,16.33
2017-04-15T04:22:24.072Z,22.12
2017-04-15T04:23:23.104Z,18.98
2017-04-15T04:24:21.487Z,22.40
2017-04-15T04:25:20.646Z,17.62
2017-04-15T04:26:19.843Z,17.98
2017-04-15T04:27:18.943Z,17.23
2017-04-15T04:28:18.087Z,21.78
2017-04-15T04:29:17.882Z,16.67
2017-04-15T04:30:17.004Z,23.55
2017-04-15T04:31:16.064Z,21.82
2017-04-15T04:32:15.155Z,16.85
2017-04-15T04:33:14.228Z,19.52
2017-04-15T04:34:13.316Z,16.63
2017-04-15T04:35:12.295Z,19.05
2017-04-15T04:36:11.452Z,19.78
2017-04-15T04:37:10.491Z,13.27
2017-04-15T04:38:09.552Z,20.28
2017-04-15T04:39:08.627Z,18.57
2017-04-15T04:40:07.772Z,19.63
2017-04-15T04:41:06.936Z,19.57
2017-04-15T04:42:06.711Z,15.45
2017-04-15T04:43:05.809Z,17.72
2017-04-15T04:44:05.043Z,22.25
2017-04-15T04:45:04.215Z,19.67
2017-04-15T04:46:03.372Z,21.08
2017-04-15T04:47:02.511Z,23.33
2017-04-15T04:48:01.736Z,22.77
2017-04-15T04:49:00.763Z,22.57
2017-04-15T04:49:59.832Z,17.68
2017-04-15T04:50:58.991Z,24.62
2017-04-15T04:51:58.064Z,16.68
2017-04-15T04:52:57.137Z,21.65
2017-04-15T04:53:56.315Z,21.20
2017-04-15T04:54:55.480Z,24.47
2017-04-15T04:55:55.320Z,22.43
2017-04-15T04:56:54.411Z,18.65
2017-04-15T04:57:53.615Z,18.55
2017-04-15T04:58:52.671Z,20.25
2017-04-15T04:59:51.792Z,22.37
2017-04-15T05:00:50.091Z,20.13
2017-04-15T05:01:49.302Z,19.27
2017-04-15T05:02:48.408Z,17.88
2017-04-15T05:03:48.763Z,19.40
2017-04-15T05:04:47.823Z,22.50
2017-04-15T05:05:46.976Z,17.02
2017-04-15T05:06:46.848Z,18.92
2017-04-15T05:07:46.765Z,18.78
2017-04-15T05:08:45.163Z,18.77
2017-04-15T05:09:44.379Z,18.33
2017-04-15T05:10:43.443Z,23.18
2017-04-15T05:11:42.539Z,19.17
2017-04-15T05:12:41.613Z,15.05
2017-04-15T05:13:40.697Z,17.33
2017-04-15T05:14:39.840Z,21.38
2017-04-15T05:15:39.012Z,20.17
2017-04-15T05:16:38.187Z,23.92
2017-04-15T05:17:37.260Z,13.47
2017-04-15T05:18:36.397Z,16.22
2017-04-15T05:19:35.579Z,20.30
2017-04-15T05:20:34.724Z,30.05
2017-04-15T05:21:33.800Z,19.45
2017-04-15T05:22:32.908Z,18.47
2017-04-15T05:23:32.072Z,18.67
2017-04-15T05:24:31.263Z,19.15
2017-04-15T05:25:30.412Z,16.50
2017-04-15T05:26:29.703Z,14.67
2017-04-15T05:27:28.965Z,18.23
2017-04-15T05:28:28.105Z,22.42
2017-04-15T05:29:26.543Z,15.97
2017-04-15T05:30:25.611Z,17.43
2017-04-15T05:31:24.817Z,19.28
2017-04-15T05:32:23.908Z,17.98
2017-04-15T05:33:22.913Z,17.42
2017-04-15T05:34:22.792Z,18.73
2017-04-15T05:35:22.091Z,17.35
2017-04-15T05:36:20.400Z,22.18
2017-04-15T05:37:19.500Z,18.32
2017-04-15T05:38:18.530Z,16.80
2017-04-15T05:39:17.715Z,17.53
2017-04-15T05:40:16.840Z,20.25
2017-04-15T05:41:15.924Z,16.45
2017-04-15T05:42:15.072Z,17.40
2017-04-15T05:43:14.118Z,19.80
2017-04-15T05:44:13.308Z,17.92
2017-04-15T05:45:12.456Z,17.75
2017-04-15T05:46:11.647Z,20.75
2017-04-15T05:47:11.499Z,13.50
2017-04-15T05:48:10.661Z,26.48
2017-04-15T05:49:09.770Z,19.68
2017-04-15T05:50:08.820Z,17.03
2017-04-15T05:51:07.916Z,16.43
2017-04-15T05:52:07.072Z,17.82
2017-04-15T05:53:06.192Z,20.58
2017-04-15T05:54:05.453Z,17.12
2017-04-15T05:55:05.575Z,14.62
2017-04-15T05:56:04.721Z,13.20
2017-04-15T05:57:03.894Z,20.27
2017-04-15T05:58:03.031Z,17.60
2017-04-15T05:59:02.147Z,19.23
2017-04-15T06:00:01.159Z,18.72
2017-04-15T06:01:00.327Z,22.15
2017-04-15T06:01:59.470Z,17.28
2017-04-15T06:02:58.619Z,17.77
2017-04-15T06:03:58.415Z,23.28
2017-04-15T06:04:57.397Z,22.95
2017-04-15T06:05:58.493Z,21.05
2017-04-15T06:06:57.725Z,18.70
2017-04-15T06:07:56.866Z,21.50
2017-04-15T06:08:56.056Z,16.10
2017-04-15T06:09:57.965Z,24.20
2017-04-15T06:10:57.180Z,20.15
2017-04-15T06:11:56.331Z,16.20
2017-04-15T06:12:55.428Z,17.20
2017-04-15T06:13:54.627Z,15.37
2017-04-15T06:14:53.824Z,20.37
2017-04-15T06:15:53.044Z,17.70
2017-04-15T06:16:52.067Z,14.00
2017-04-15T06:17:50.413Z,19.42
2017-04-15T06:18:49.769Z,27.95
2017-04-15T06:19:48.897Z,19.75
2017-04-15T06:20:48.020Z,22.77
2017-04-15T06:21:47.156Z,16.68
2017-04-15T06:22:46.349Z,15.62
2017-04-15T06:23:46.232Z,19.23
2017-04-15T06:24:45.459Z,17.03
2017-04-15T06:25:43.856Z,15.45
2017-04-15T06:26:43.714Z,17.30
2017-04-15T06:27:42.889Z,18.62
2017-04-15T06:28:42.089Z,18.35
2017-04-15T06:29:41.136Z,18.93
2017-04-15T06:30:40.252Z,16.83
2017-04-15T06:31:39.376Z,14.97
2017-04-15T06:32:38.467Z,14.50
2017-04-15T06:33:38.361Z,13.03
2017-04-15T06:34:37.475Z,12.78
2017-04-15T06:35:37.284Z,22.35
2017-04-15T06:36:36.359Z,10.97
2017-04-15T06:37:35.543Z,17.62
2017-04-15T06:38:34.708Z,13.37
2017-04-15T06:39:34.467Z,12.23
2017-04-15T06:40:33.511Z,13.10
2017-04-15T06:41:32.504Z,24.08
2017-04-15T06:42:31.591Z,14.92
2017-04-15T06:43:30.672Z,14.25
2017-04-15T06:44:29.787Z,16.38
2017-04-15T06:45:28.820Z,9.95
2017-04-15T06:46:27.907Z,17.47
2017-04-15T06:47:26.931Z,14.45
2017-04-15T06:48:25.404Z,15.38
2017-04-15T06:49:24.534Z,12.50
2017-04-15T06:50:23.600Z,13.27
2017-04-15T06:51:22.756Z,13.12
2017-04-15T06:52:21.869Z,10.48
2017-04-15T06:53:20.943Z,13.62
2017-04-15T06:54:20.015Z,11.43
2017-04-15T06:55:19.036Z,10.57
2017-04-15T06:56:19.084Z,16.82
2017-04-15T06:57:18.109Z,11.20
2017-04-15T06:58:16.392Z,10.68
2017-04-15T06:59:15.599Z,13.92
2017-04-15T07:00:14.760Z,14.27
2017-04-15T07:01:13.936Z,12.35
2017-04-15T07:02:13.075Z,10.60
2017-04-15T07:03:12.228Z,20.13
2017-04-15T07:04:11.276Z,11.18
2017-04-15T07:05:10.357Z,15.88
2017-04-15T07:06:09.484Z,11.82
2017-04-15T07:07:08.452Z,13.55
2017-04-15T07:08:07.561Z,15.40
2017-04-15T07:09:06.671Z,10.62
2017-04-15T07:10:05.762Z,12.95
2017-04-15T07:11:04.916Z,10.93
2017-04-15T07:12:03.297Z,10.63
2017-04-15T07:13:02.396Z,15.30
2017-04-15T07:14:01.436Z,20.42
2017-04-15T07:15:00.579Z,11.47
2017-04-15T07:15:58.920Z,12.68
2017-04-15T07:16:58.088Z,20.77
2017-04-15T07:17:57.465Z,15.58
2017-04-15T07:18:56.640Z,16.70
2017-04-15T07:19:55.704Z,13.65
2017-04-15T07:20:54.811Z,11.73
2017-04-15T07:21:53.867Z,12.98
2017-04-15T07:22:52.949Z,17.28
2017-04-15T07:23:52.031Z,13.98
2017-04-15T07:24:50.407Z,15.68
2017-04-15T07:25:50.294Z,12.32
2017-04-15T07:26:49.381Z,12.07
2017-04-15T07:27:48.496Z,10.77
2017-04-15T07:28:47.563Z,18.82
2017-04-15T07:29:46.615Z,11.35
2017-04-15T07:30:45.689Z,13.40
2017-04-15T07:31:44.764Z,13.73
2017-04-15T07:32:43.828Z,11.37
2017-04-15T07:33:42.910Z,11.93
2017-04-15T07:34:41.388Z,11.33
2017-04-15T07:35:40.556Z,11.50
2017-04-15T07:36:39.668Z,14.23
2017-04-15T07:37:38.860Z,10.10
2017-04-15T07:38:37.899Z,11.80
2017-04-15T07:39:37.699Z,11.22
2017-04-15T07:40:36.743Z,13.73
2017-04-15T07:41:35.939Z,11.48
2017-04-15T07:42:35.736Z,13.72
2017-04-15T07:43:34.184Z,10.85
2017-04-15T07:44:33.255Z,12.68
2017-04-15T07:45:32.356Z,10.83
2017-04-15T07:46:31.479Z,13.65
2017-04-15T07:47:30.595Z,11.57
2017-04-15T07:48:29.736Z,11.83
2017-04-15T07:49:28.849Z,15.18
2017-04-15T07:50:28.019Z,10.00
2017-04-15T07:51:27.145Z,12.22
2017-04-15T07:52:26.173Z,12.58
2017-04-15T07:53:25.213Z,9.60
2017-04-15T07:54:24.262Z,9.28
2017-04-15T07:55:23.919Z,10.63
2017-04-15T07:56:23.014Z,7.92
2017-04-15T07:57:22.251Z,12.95
2017-04-15T07:58:21.307Z,9.25
2017-04-15T07:59:20.356Z,9.73
2017-04-15T08:00:18.744Z,9.77
2017-04-15T08:01:18.776Z,12.83
2017-04-15T08:02:17.938Z,7.03
2017-04-15T08:03:17.132Z,14.37
2017-04-15T08:04:16.212Z,6.90
2017-04-15T08:05:15.333Z,9.15
2017-04-15T08:06:14.481Z,10.12
2017-04-15T08:07:13.611Z,11.90
2017-04-15T08:08:13.497Z,12.47
2017-04-15T08:09:12.768Z,16.32
2017-04-15T08:10:11.866Z,10.65
2017-04-15T08:11:10.987Z,7.33
2017-04-15T08:12:10.099Z,6.97
2017-04-15T08:13:09.223Z,10.38
2017-04-15T08:14:08.302Z,10.98
2017-04-15T08:15:07.484Z,7.87
2017-04-15T08:16:07.335Z,7.80
2017-04-15T08:17:06.372Z,8.23
2017-04-15T08:18:04.556Z,9.03
2017-04-15T08:19:03.643Z,12.88
2017-04-15T08:20:02.755Z,6.73
2017-04-15T08:21:01.900Z,8.60
2017-04-15T08:22:00.956Z,10.43
2017-04-15T08:23:00.132Z,10.22
2017-04-15T08:23:59.175Z,8.02
2017-04-15T08:24:58.633Z,12.08
2017-04-15T08:25:57.719Z,7.65
2017-04-15T08:26:56.773Z,10.73
2017-04-15T08:27:55.852Z,11.47
2017-04-15T08:28:54.994Z,6.15
2017-04-15T08:29:54.823Z,9.80
2017-04-15T08:30:54.111Z,7.48
2017-04-15T08:31:53.252Z,9.28
2017-04-15T08:32:51.547Z,9.53
2017-04-15T08:33:50.675Z,7.65
2017-04-15T08:34:49.819Z,6.98
2017-04-15T08:35:49.253Z,7.28
2017-04-15T08:36:48.387Z,7.08
2017-04-15T08:37:47.520Z,7.48
2017-04-15T08:38:45.928Z,9.83
2017-04-15T08:39:44.979Z,10.05
2017-04-15T08:40:44.143Z,8.03
2017-04-15T08:41:43.288Z,4.50
2017-04-15T08:42:42.372Z,5.12
2017-04-15T08:43:41.491Z,6.28
2017-04-15T08:44:40.563Z,8.37
2017-04-15T08:45:39.655Z,5.20
2017-04-15T08:46:38.752Z,6.52
2017-04-15T08:47:37.827Z,6.03
2017-04-15T08:48:36.921Z,5.27
2017-04-15T08:49:35.296Z,3.47
2017-04-15T08:50:34.394Z,7.53
2017-04-15T08:51:33.543Z,4.07
2017-04-15T08:52:32.572Z,4.13
2017-04-15T08:53:32.621Z,7.78
2017-04-15T08:54:31.840Z,9.72
2017-04-15T08:55:30.951Z,4.25
2017-04-15T08:56:30.135Z,6.53
2017-04-15T08:57:29.155Z,3.95
2017-04-15T08:58:28.296Z,5.83
2017-04-15T08:59:27.463Z,10.78
2017-04-15T09:00:25.819Z,8.05
2017-04-15T09:01:24.232Z,6.47
2017-04-15T09:02:23.253Z,6.73
2017-04-15T09:03:21.543Z,7.15
2017-04-15T09:04:20.632Z,6.32
2017-04-15T09:05:19.716Z,6.18
2017-04-15T09:06:18.879Z,3.72
2017-04-15T09:07:17.939Z,6.05
2017-04-15T09:08:16.239Z,3.50
2017-04-15T09:09:15.385Z,15.27
2017-04-15T09:10:14.575Z,5.98
2017-04-15T09:11:13.750Z,5.37
2017-04-15T09:12:12.844Z,6.28
2017-04-15T09:13:11.988Z,5.32
2017-04-15T09:14:11.156Z,4.15
2017-04-15T09:15:10.316Z,4.35
2017-04-15T09:16:09.447Z,6.13
2017-04-15T09:17:09.303Z,5.92
2017-04-15T09:18:08.307Z,3.33
2017-04-15T09:19:07.328Z,3.85
2017-04-15T09:20:06.396Z,4.92
2017-04-15T09:21:05.433Z,6.03
2017-04-15T09:22:03.751Z,2.78
2017-04-15T09:23:02.852Z,7.48
2017-04-15T09:24:01.939Z,2.57
2017-04-15T09:25:00.938Z,7.20
2017-04-15T09:25:59.948Z,5.07
2017-04-15T09:26:59.043Z,3.78
2017-04-15T09:27:58.076Z,3.83
2017-04-15T09:28:57.140Z,3.48
2017-04-15T09:29:56.199Z,2.45
2017-04-15T09:30:54.594Z,2.47
2017-04-15T09:31:52.999Z,1.55
2017-04-15T09:32:52.034Z,1.77
2017-04-15T09:33:50.384Z,1.80
2017-04-15T09:34:49.500Z,4.73
2017-04-15T09:35:48.622Z,4.00
2017-04-15T09:36:47.675Z,4.03
2017-04-15T09:37:46.819Z,2.55
2017-04-15T09:38:45.124Z,2.23
2017-04-15T09:39:44.276Z,2.82
2017-04-15T09:40:43.377Z,5.52
2017-04-15T09:41:42.490Z,2.20
2017-04-15T09:42:41.660Z,1.88
2017-04-15T09:43:40.763Z,1.30
2017-04-15T09:44:38.978Z,3.02
2017-04-15T09:45:38.011Z,4.62
2017-04-15T09:46:36.323Z,7.07
2017-04-15T09:47:35.426Z,2.85
2017-04-15T09:48:34.455Z,2.78
2017-04-15T09:49:34.210Z,4.73
2017-04-15T09:50:32.520Z,4.72
2017-04-15T09:51:30.922Z,3.13
2017-04-15T09:52:30.036Z,4.32
2017-04-15T09:53:28.340Z,2.30
2017-04-15T09:54:27.396Z,4.47
2017-04-15T09:55:26.475Z,2.83
2017-04-15T09:56:25.625Z,5.38
2017-04-15T09:57:23.955Z,6.20
2017-04-15T09:58:22.292Z,5.22
2017-04-15T09:59:21.341Z,7.63
2017-04-15T10:00:19.667Z,6.15
2017-04-15T10:01:18.022Z,5.32
2017-04-15T10:02:17.072Z,4.27
2017-04-15T10:03:16.147Z,4.28
2017-04-15T10:04:15.267Z,3.55
2017-04-15T10:05:14.343Z,4.38
2017-04-15T10:06:13.363Z,3.53
2017-04-15T10:07:12.384Z,3.65
2017-04-15T10:08:12.264Z,5.38
2017-04-15T10:09:11.627Z,4.40
2017-04-15T10:10:10.651Z,8.60
2017-04-15T10:11:09.928Z,3.83
2017-04-15T10:12:09.069Z,2.38
2017-04-15T10:13:08.167Z,6.22
2017-04-15T10:14:07.243Z,2.55
2017-04-15T10:15:06.308Z,7.15
2017-04-15T10:16:05.284Z,4.25
2017-04-15T10:17:04.407Z,6.53
2017-04-15T10:18:03.468Z,4.27
2017-04-15T10:19:02.400Z,5.17
2017-04-15T10:20:00.768Z,2.55
2017-04-15T10:20:59.844Z,4.78
2017-04-15T10:21:58.905Z,2.92
2017-04-15T10:22:57.311Z,3.80
2017-04-15T10:23:56.384Z,5.50
2017-04-15T10:24:55.472Z,2.52
2017-04-15T10:25:54.627Z,3.57
2017-04-15T10:26:53.807Z,2.58
2017-04-15T10:27:52.788Z,5.37
2017-04-15T10:28:51.768Z,3.52
2017-04-15T10:29:50.864Z,3.17
2017-04-15T10:30:49.931Z,1.85
2017-04-15T10:31:49.075Z,2.00
2017-04-15T10:32:47.575Z,3.43
2017-04-15T10:33:46.653Z,5.45
2017-04-15T10:34:45.736Z,3.82
2017-04-15T10:35:44.804Z,2.55
2017-04-15T10:36:44.135Z,5.57
2017-04-15T10:37:43.270Z,5.72
2017-04-15T10:38:42.264Z,3.37
2017-04-15T10:39:41.405Z,2.38
2017-04-15T10:40:40.424Z,2.23
2017-04-15T10:41:39.468Z,2.58
2017-04-15T10:42:38.603Z,2.00
2017-04-15T10:43:37.710Z,2.67
2017-04-15T10:44:36.796Z,2.42
2017-04-15T10:45:35.149Z,1.77
2017-04-15T10:46:34.961Z,3.37
2017-04-15T10:47:34.067Z,2.07
2017-04-15T10:48:33.157Z,2.72
2017-04-15T10:49:32.621Z,3.03
2017-04-15T10:50:31.603Z,2.73
2017-04-15T10:51:30.569Z,1.67
2017-04-15T10:52:29.668Z,4.83
2017-04-15T10:53:28.791Z,2.42
2017-04-15T10:54:27.315Z,1.63
2017-04-15T10:55:26.490Z,1.83
2017-04-15T10:56:25.531Z,5.13
2017-04-15T10:57:23.899Z,2.65
2017-04-15T10:58:22.272Z,1.70
2017-04-15T10:59:20.644Z,1.75
2017-04-15T11:00:21.088Z,2.47
2017-04-15T11:01:20.240Z,17.80
2017-04-15T11:02:19.438Z,2.25
2017-04-15T11:03:18.492Z,7.28
2017-04-15T11:04:17.531Z,2.42
2017-04-15T11:05:15.835Z,1.68
2017-04-15T11:06:14.852Z,12.18
2017-04-15T11:07:13.984Z,1.65
2017-04-15T11:08:13.031Z,3.50
2017-04-15T11:09:12.408Z,2.87
2017-04-15T11:10:11.472Z,2.10
2017-04-15T11:11:10.639Z,2.05
2017-04-15T11:12:09.683Z,2.70
2017-04-15T11:13:08.663Z,1.45
2017-04-15T11:14:07.791Z,2.80
2017-04-15T11:15:07.004Z,2.97
2017-04-15T11:16:05.335Z,1.82
2017-04-15T11:17:04.421Z,1.65
2017-04-15T11:18:03.552Z,2.35
2017-04-15T11:19:02.643Z,1.83
2017-04-15T11:20:01.815Z,2.12
2017-04-15T11:21:00.899Z,1.75
2017-04-15T11:22:00.099Z,2.27
2017-04-15T11:22:59.224Z,3.12
2017-04-15T11:23:57.667Z,1.97
2017-04-15T11:24:56.789Z,4.88
2017-04-15T11:25:55.801Z,15.08
2017-04-15T11:26:54.952Z,4.78
2017-04-15T11:27:54.001Z,3.60
2017-04-15T11:28:53.100Z,2.53
2017-04-15T11:29:52.153Z,2.28
2017-04-15T11:30:50.391Z,1.92
2017-04-15T11:31:49.440Z,2.42
2017-04-15T11:32:48.505Z,2.27
2017-04-15T11:33:47.584Z,1.52
2017-04-15T11:34:46.628Z,1.58
2017-04-15T11:35:44.989Z,2.82
2017-04-15T11:36:44.068Z,1.67
2017-04-15T11:37:43.281Z,1.70
2017-04-15T11:38:42.436Z,2.92
2017-04-15T11:39:40.831Z,2.35
2017-04-15T11:40:39.887Z,1.45
2017-04-15T11:41:38.931Z,1.70
2017-04-15T11:42:37.973Z,1.28
2017-04-15T11:43:36.943Z,1.67
2017-04-15T11:44:36.079Z,6.65
2017-04-15T11:45:35.172Z,2.23
2017-04-15T11:46:33.528Z,2.52
2017-04-15T11:47:31.879Z,3.83
2017-04-15T11:48:30.995Z,1.65
2017-04-15T11:49:30.050Z,1.95
2017-04-15T11:50:28.340Z,2.00
2017-04-15T11:51:27.444Z,3.35
2017-04-15T11:52:26.609Z,2.23
2017-04-15T11:53:25.824Z,2.15
2017-04-15T11:54:25.025Z,4.48
2017-04-15T11:55:24.051Z,2.63
2017-04-15T11:56:23.136Z,1.58
2017-04-15T11:57:22.272Z,4.02
2017-04-15T11:58:20.667Z,1.90
2017-04-15T11:59:19.817Z,3.43
2017-04-15T12:00:18.913Z,2.38
2017-04-15T12:01:17.392Z,5.12
2017-04-15T12:02:15.818Z,3.28
2017-04-15T12:03:15.724Z,3.00
2017-04-15T12:04:14.100Z,6.73
2017-04-15T12:05:13.198Z,2.52
2017-04-15T12:06:12.198Z,5.60
2017-04-15T12:07:12.059Z,2.90
2017-04-15T12:08:11.137Z,2.90
2017-04-15T12:09:10.227Z,2.78
2017-04-15T12:10:09.489Z,2.93
2017-04-15T12:11:08.545Z,2.42
2017-04-15T12:12:07.575Z,1.70
2017-04-15T12:13:06.635Z,2.40
2017-04-15T12:14:05.637Z,2.47
2017-04-15T12:15:04.799Z,2.15
2017-04-15T12:16:03.892Z,3.30
2017-04-15T12:17:03.017Z,2.55
2017-04-15T12:18:02.065Z,2.28
2017-04-15T12:19:01.183Z,4.70
2017-04-15T12:20:00.279Z,3.37
2017-04-15T12:20:59.372Z,3.52
2017-04-15T12:21:58.478Z,4.70
2017-04-15T12:22:57.604Z,3.08
2017-04-15T12:23:56.711Z,3.12
2017-04-15T12:24:55.784Z,2.62
2017-04-15T12:25:54.856Z,5.62
2017-04-15T12:26:53.867Z,3.95
2017-04-15T12:27:53.016Z,2.25
2017-04-15T12:28:52.144Z,3.87
2017-04-15T12:29:51.244Z,5.97
2017-04-15T12:30:51.080Z,6.37
2017-04-15T12:31:50.187Z,1.93
2017-04-15T12:32:49.376Z,5.25
2017-04-15T12:33:48.587Z,4.22
2017-04-15T12:34:47.696Z,5.00
2017-04-15T12:35:46.780Z,3.55
2017-04-15T12:36:45.883Z,16.85
2017-04-15T12:37:44.950Z,5.70
2017-04-15T12:38:44.016Z,4.32
2017-04-15T12:39:43.061Z,3.72
2017-04-15T12:40:42.619Z,4.32
2017-04-15T12:41:41.780Z,3.73
2017-04-15T12:42:40.913Z,2.87
2017-04-15T12:43:39.256Z,3.58
2017-04-15T12:44:38.427Z,2.68
2017-04-15T12:45:37.533Z,3.72
2017-04-15T12:46:35.900Z,5.05
2017-04-15T12:47:34.565Z,3.63
2017-04-15T12:48:33.043Z,4.37
2017-04-15T12:49:31.461Z,3.45